.
WxDataArchive / Data Records for 2013-03-30
2013-03-29 March 2013 2013-03-31

Data Records for Saturday, 30 March 2013

Time	Temp	Chill	HIndex	Humid	Dewpt	 Wind 	HiWind	WindDir	Rain 	Barom 
-----	----	-----	------	-----	-----	------	------	-------	-----	----- 
00:00	34.3	34.3	34.3	56	20.3	0	0	---	0.00	30.244 
00:05	34.1	34.1	34.1	57	20.5	0	0	---	0.00	30.244 
00:10	33.8	33.8	33.8	57	20.2	0	0	---	0.00	30.244 
00:15	33.5	33.5	33.5	57	19.9	0	0	---	0.00	30.242 
00:20	33.2	33.2	33.2	58	20.0	0	0	---	0.00	30.242 
00:25	32.9	32.9	32.9	58	19.8	0	0	---	0.00	30.242 
00:30	32.7	32.7	32.7	59	20.0	0	0	---	0.00	30.239 
00:35	32.5	32.5	32.5	60	20.2	0	0	---	0.00	30.239 
00:40	32.2	32.2	32.2	60	19.9	0	0	---	0.00	30.239 
00:45	32.1	32.1	32.1	60	19.8	0	0	---	0.00	30.236 
00:50	31.8	31.8	31.8	61	19.9	0	0	---	0.00	30.236 
00:55	31.6	31.6	31.6	62	20.1	0	0	---	0.00	30.236 
01:00	31.5	31.5	31.5	62	20.0	0	0	---	0.00	30.233 
01:05	31.3	31.3	31.3	63	20.2	0	0	---	0.00	30.233 
01:10	31.2	31.2	31.2	63	20.1	0	0	---	0.00	30.233 
01:15	31.0	31.0	31.0	64	20.3	0	0	---	0.00	30.233 
01:20	30.9	30.9	30.9	64	20.2	0	0	---	0.00	30.233 
01:25	30.7	30.7	30.7	64	20.0	0	0	---	0.00	30.233 
01:30	30.4	30.4	30.4	65	20.1	0	0	---	0.00	30.232 
01:35	30.1	30.1	30.1	65	19.8	0	0	---	0.00	30.232 
01:40	30.0	30.0	30.0	66	20.0	0	0	---	0.00	30.232 
01:45	29.7	29.7	29.7	66	19.8	0	0	---	0.00	30.234 
01:50	29.5	29.5	29.5	67	19.9	0	0	---	0.00	30.234 
01:55	29.4	29.4	29.4	67	19.8	0	0	---	0.00	30.234 
02:00	29.3	29.3	29.3	67	19.7	0	0	---	0.00	30.234 
02:05	29.1	29.1	29.1	68	19.9	0	0	---	0.00	30.234 
02:10	29.0	29.0	29.0	69	20.1	0	0	---	0.00	30.234 
02:15	28.8	28.8	28.8	69	19.9	0	0	---	0.00	30.233 
02:20	28.7	28.7	28.7	69	19.8	0	0	---	0.00	30.233 
02:25	28.5	28.5	28.5	70	20.0	0	0	---	0.00	30.233 
02:30	28.4	28.4	28.4	70	19.9	0	0	---	0.00	30.230 
02:35	28.2	28.2	28.2	71	20.0	0	0	---	0.00	30.230 
02:40	28.2	28.2	28.2	71	20.0	0	0	---	0.00	30.230 
02:45	28.4	28.4	28.4	72	20.5	0	0	---	0.00	30.230 
02:50	28.4	28.4	28.4	72	20.5	0	0	---	0.00	30.230 
02:55	28.4	28.4	28.4	72	20.5	0	0	---	0.00	30.230 
03:00	28.2	28.2	28.2	72	20.4	0	0	---	0.00	30.229 
03:05	28.1	28.1	28.1	72	20.3	0	0	---	0.00	30.229 
03:10	27.9	27.9	27.9	72	20.1	0	0	---	0.00	30.229 
03:15	27.8	27.8	27.8	73	20.3	0	0	---	0.00	30.231 
03:20	27.8	27.8	27.8	73	20.3	0	0	---	0.00	30.231 
03:25	27.6	27.6	27.6	74	20.4	0	0	---	0.00	30.231 
03:30	27.6	27.6	27.6	75	20.7	0	0	---	0.00	30.230 
03:35	27.6	27.6	27.6	75	20.7	0	0	---	0.00	30.230 
03:40	27.6	27.6	27.6	76	21.0	0	0	---	0.00	30.230 
03:45	27.6	27.6	27.6	76	21.0	0	0	---	0.00	30.230 
03:50	27.6	27.6	27.6	77	21.4	0	0	---	0.00	30.230 
03:55	27.6	27.6	27.6	77	21.4	0	0	---	0.00	30.230 
04:00	27.5	27.5	27.5	77	21.3	0	0	---	0.00	30.229 
04:05	27.5	27.5	27.5	77	21.3	0	0	---	0.00	30.229 
04:10	27.5	27.5	27.5	77	21.3	0	0	---	0.00	30.229 
04:15	27.5	27.5	27.5	76	20.9	0	0	---	0.00	30.228 
04:20	27.5	27.5	27.5	77	21.3	0	0	---	0.00	30.228 
04:25	27.5	27.5	27.5	77	21.3	0	0	---	0.00	30.228 
04:30	27.3	27.3	27.3	77	21.1	0	0	---	0.00	30.226 
04:35	27.0	27.0	27.0	77	20.8	0	0	---	0.00	30.226 
04:40	26.9	26.9	26.9	77	20.7	0	0	---	0.00	30.226 
04:45	26.7	26.7	26.7	77	20.5	0	0	---	0.00	30.218 
04:50	26.7	26.7	26.7	77	20.5	0	0	---	0.00	30.218 
04:55	26.7	26.7	26.7	78	20.8	0	0	---	0.00	30.218 
05:00	26.6	26.6	26.6	78	20.7	0	0	---	0.00	30.217 
05:05	26.6	26.6	26.6	79	21.0	0	0	---	0.00	30.217 
05:10	26.4	26.4	26.4	79	20.8	0	0	---	0.00	30.217 
05:15	26.4	26.4	26.4	79	20.8	0	0	---	0.00	30.215 
05:20	26.3	26.3	26.3	79	20.7	0	0	---	0.00	30.215 
05:25	26.1	26.1	26.1	79	20.5	0	0	---	0.00	30.215 
05:30	26.0	26.0	26.0	79	20.4	0	0	---	0.00	30.214 
05:35	25.8	25.8	25.8	79	20.2	0	0	---	0.00	30.214 
05:40	25.7	25.7	25.7	80	20.4	0	0	---	0.00	30.214 
05:45	25.6	25.6	25.6	80	20.3	0	0	---	0.00	30.211 
05:50	25.6	25.6	25.6	80	20.3	0	0	---	0.00	30.211 
05:55	25.6	25.6	25.6	80	20.3	0	0	---	0.00	30.211 
06:00	25.4	25.4	25.4	80	20.1	0	0	---	0.00	30.216 
06:05	25.4	25.4	25.4	80	20.1	0	0	---	0.00	30.216 
06:10	25.4	25.4	25.4	80	20.1	0	0	---	0.00	30.216 
06:15	25.4	25.4	25.4	80	20.1	0	0	---	0.00	30.219 
06:20	25.3	25.3	25.3	80	20.0	0	0	---	0.00	30.219 
06:25	25.3	25.3	25.3	80	20.0	0	0	---	0.00	30.219 
06:30	25.1	25.1	25.1	80	19.8	0	0	---	0.00	30.222 
06:35	25.0	25.0	25.0	80	19.7	0	0	---	0.00	30.222 
06:40	24.8	24.8	24.8	80	19.5	0	0	---	0.00	30.222 
06:45	24.7	24.7	24.7	80	19.4	0	0	---	0.00	30.227 
06:50	24.7	24.7	24.7	81	19.7	0	0	---	0.00	30.227 
06:55	24.7	24.7	24.7	81	19.7	0	0	---	0.00	30.227 
07:00	24.5	24.5	24.5	81	19.5	0	0	---	0.00	30.231 
07:05	24.5	24.5	24.5	81	19.5	0	0	---	0.00	30.231 
07:10	24.5	24.5	24.5	81	19.5	0	0	---	0.00	30.231 
07:15	24.7	24.7	24.7	81	19.7	0	0	---	0.00	30.235 
07:20	24.7	24.7	24.7	82	20.0	0	0	---	0.00	30.235 
07:25	24.7	24.7	24.7	81	19.7	0	0	---	0.00	30.235 
07:30	24.7	24.7	24.7	81	19.7	0	0	---	0.00	30.239 
07:35	24.5	24.5	24.5	82	19.8	0	0	---	0.00	30.239 
07:40	24.7	24.7	24.7	82	20.0	0	0	---	0.00	30.239 
07:45	24.7	24.7	24.7	82	20.0	0	0	---	0.00	30.240 
07:50	24.8	24.8	24.8	82	20.1	0	0	---	0.00	30.240 
07:55	25.0	25.0	25.0	82	20.3	0	0	---	0.00	30.240 
08:00	25.1	25.1	25.1	83	20.7	0	0	---	0.00	30.239 
08:05	25.6	25.6	25.6	83	21.2	0	0	---	0.00	30.239 
08:10	26.1	26.1	26.1	83	21.7	0	0	---	0.00	30.239 
08:15	26.6	26.6	26.6	82	21.9	0	0	---	0.00	30.239 
08:20	26.9	26.9	26.9	81	21.9	0	0	---	0.00	30.239 
08:25	27.2	27.2	27.2	81	22.2	0	0	---	0.00	30.239 
08:30	27.5	27.5	27.5	81	22.4	0	0	---	0.00	30.240 
08:35	28.1	28.1	28.1	82	23.3	0	0	---	0.00	30.240 
08:40	29.3	29.3	29.3	80	23.9	0	0	---	0.00	30.240 
08:45	30.3	30.3	30.3	78	24.3	0	0	---	0.00	30.233 
08:50	30.9	30.9	30.9	77	24.6	0	0	---	0.00	30.233 
08:55	32.1	32.1	32.1	76	25.4	0	0	---	0.00	30.233 
09:00	33.1	33.1	33.1	73	25.4	0	0	---	0.00	30.222 
09:05	34.1	34.1	34.1	70	25.4	0	0	---	0.00	30.222 
09:10	34.9	34.9	34.9	68	25.4	0	0	---	0.00	30.222 
09:15	35.8	35.8	35.8	60	23.3	0	1	270	0.00	30.214 
09:20	36.2	36.2	36.2	57	22.5	0	1	270	0.00	30.214 
09:25	36.8	36.8	36.8	56	22.6	0	1	270	0.00	30.214 
09:30	37.3	37.3	37.3	56	23.1	0	1	270	0.00	30.211 
09:35	37.9	37.9	37.9	54	22.8	0	1	270	0.00	30.211 
09:40	38.5	38.5	38.5	52	22.4	0	2	270	0.00	30.211 
09:45	39.3	39.3	39.3	52	23.2	0	2	270	0.00	30.210 
09:50	40.1	40.1	40.1	51	23.4	0	2	270	0.00	30.210 
09:55	40.8	40.8	40.8	50	23.6	0	1	270	0.00	30.210 
10:00	41.3	41.3	41.3	48	23.1	0	1	270	0.00	30.201 
10:05	42.2	42.2	42.2	47	23.4	0	2	180	0.00	30.201 
10:10	43.1	43.1	43.1	45	23.2	0	3	180	0.00	30.201 
10:15	43.6	43.6	43.6	43	22.6	0	3	90	0.00	30.202 
10:20	44.2	44.2	44.2	42	22.6	0	3	90	0.00	30.202 
10:25	44.6	44.6	44.6	42	22.9	1	3	112	0.00	30.202 
10:30	44.9	44.9	44.9	42	23.2	1	3	112	0.00	30.196 
10:35	45.4	45.4	45.4	42	23.7	0	3	112	0.00	30.196 
10:40	46.0	46.0	46.0	39	22.4	1	3	112	0.00	30.196 
10:45	46.5	46.5	46.5	41	24.1	0	2	112	0.00	30.193 
10:50	47.0	47.0	47.0	37	22.1	1	4	112	0.00	30.193 
10:55	47.1	47.1	47.1	38	22.8	0	2	135	0.00	30.193 
11:00	47.6	47.6	47.6	36	22.0	0	2	180	0.00	30.193 
11:05	47.7	47.7	47.7	35	21.4	1	5	112	0.00	30.193 
11:10	48.0	48.0	48.0	37	23.0	1	3	225	0.00	30.193 
11:15	48.5	48.5	48.5	36	22.8	2	7	90	0.00	30.200 
11:20	48.6	48.6	48.6	39	24.8	1	4	248	0.00	30.200 
11:25	49.1	49.1	49.1	35	22.6	1	4	248	0.00	30.200 
11:30	49.4	49.4	49.4	36	23.6	1	5	90	0.00	30.191 
11:35	49.9	49.9	49.9	36	24.0	1	4	225	0.00	30.191 
11:40	50.5	50.5	50.5	35	23.9	1	4	90	0.00	30.191 
11:45	50.8	50.8	50.8	34	23.5	1	4	68	0.00	30.184 
11:50	51.1	51.1	51.1	36	25.1	1	4	68	0.00	30.184 
11:55	51.1	51.1	51.1	34	23.7	1	5	90	0.00	30.184 
12:00	51.3	51.3	51.3	34	23.9	1	3	225	0.00	30.176 
12:05	51.7	51.7	51.7	35	24.9	1	5	225	0.00	30.176 
12:10	52.2	52.2	52.2	38	27.4	1	6	270	0.00	30.176 
12:15	52.6	52.6	52.6	34	25.0	1	3	90	0.00	30.163 
12:20	52.6	52.6	52.6	33	24.3	2	6	90	0.00	30.163 
12:25	52.6	52.6	52.6	35	25.7	1	4	248	0.00	30.163 
12:30	52.8	52.8	52.8	37	27.3	1	5	248	0.00	30.162 
12:35	52.8	52.8	52.8	39	28.5	1	5	248	0.00	30.162 
12:40	53.1	53.1	53.1	39	28.8	2	5	90	0.00	30.162 
12:45	53.3	53.3	53.3	37	27.7	1	6	112	0.00	30.152 
12:50	53.2	53.2	53.2	37	27.6	2	9	90	0.00	30.152 
12:55	52.9	52.9	52.9	37	27.3	2	6	90	0.00	30.152 
13:00	53.1	53.1	53.1	38	28.2	1	4	248	0.00	30.142 
13:05	53.3	53.3	53.3	36	27.0	1	4	248	0.00	30.142 
13:10	53.9	53.9	53.9	35	26.9	2	4	248	0.00	30.142 
13:15	54.1	54.1	54.1	38	29.1	1	4	112	0.00	30.136 
13:20	54.5	54.5	54.5	36	28.1	1	5	248	0.00	30.136 
13:25	54.4	54.4	54.4	38	29.3	1	6	338	0.00	30.136 
13:30	54.4	54.4	54.4	37	28.7	1	3	225	0.00	30.132 
13:35	54.5	54.5	54.5	38	29.4	1	3	248	0.00	30.132 
13:40	54.2	54.2	54.2	36	27.8	2	5	248	0.00	30.132 
13:45	54.2	54.2	54.2	40	30.4	1	4	112	0.00	30.124 
13:50	54.7	54.7	54.7	40	30.9	0	3	248	0.00	30.124 
13:55	55.0	55.0	55.0	35	27.9	1	6	248	0.00	30.124 
14:00	55.1	55.1	55.1	36	28.6	1	3	248	0.00	30.115 
14:05	55.3	55.3	55.3	35	28.1	1	6	248	0.00	30.115 
14:10	55.0	55.0	55.0	39	30.5	3	6	90	0.00	30.115 
14:15	55.0	55.0	55.0	38	29.9	1	5	248	0.00	30.112 
14:20	55.6	55.6	55.6	42	32.9	1	3	270	0.00	30.112 
14:25	55.7	55.7	55.7	41	32.4	1	3	270	0.00	30.112 
14:30	56.0	56.0	56.0	37	30.1	1	4	248	0.00	30.105 
14:35	56.2	56.2	56.2	36	29.6	2	6	270	0.00	30.105 
14:40	56.2	56.2	56.2	35	28.9	2	6	248	0.00	30.105 
14:45	56.2	56.2	56.2	40	32.2	1	4	68	0.00	30.101 
14:50	56.3	56.3	56.3	38	31.0	1	3	248	0.00	30.101 
14:55	56.0	56.0	56.0	37	30.1	1	11	248	0.00	30.101 
15:00	56.0	56.0	56.0	36	29.4	1	5	248	0.00	30.099 
15:05	55.6	55.6	55.6	36	29.1	1	4	248	0.00	30.099 
15:10	55.4	55.4	55.4	38	30.2	1	5	248	0.00	30.099 
15:15	55.6	55.6	55.6	39	31.0	1	5	248	0.00	30.091 
15:20	55.6	55.6	55.6	38	30.4	1	4	248	0.00	30.091 
15:25	55.6	55.6	55.6	38	30.4	1	3	248	0.00	30.091 
15:30	55.4	55.4	55.4	37	29.6	1	3	248	0.00	30.084 
15:35	55.4	55.4	55.4	41	32.1	1	4	248	0.00	30.084 
15:40	55.6	55.6	55.6	40	31.7	1	5	248	0.00	30.084 
15:45	55.4	55.4	55.4	38	30.2	1	4	90	0.00	30.073 
15:50	55.7	55.7	55.7	40	31.8	1	4	202	0.00	30.073 
15:55	55.9	55.9	55.9	35	28.7	1	4	248	0.00	30.073 
16:00	56.0	56.0	56.0	37	30.1	1	4	248	0.00	30.068 
16:05	55.9	55.9	55.9	38	30.7	1	5	90	0.00	30.068 
16:10	55.6	55.6	55.6	39	31.0	2	7	112	0.00	30.068 
16:15	55.4	55.4	55.4	36	28.9	1	2	248	0.00	30.061 
16:20	55.3	55.3	55.3	37	29.5	0	2	248	0.00	30.061 
16:25	55.3	55.3	55.3	37	29.5	1	4	135	0.00	30.061 
16:30	55.0	55.0	55.0	37	29.2	1	4	248	0.00	30.054 
16:35	54.7	54.7	54.7	37	28.9	1	4	248	0.00	30.054 
16:40	54.7	54.7	54.7	37	28.9	1	4	248	0.00	30.054 
16:45	54.7	54.7	54.7	38	29.6	1	4	248	0.00	30.052 
16:50	54.5	54.5	54.5	40	30.7	2	9	248	0.00	30.052 
16:55	54.4	54.4	54.4	40	30.6	1	3	270	0.00	30.052 
17:00	54.2	54.2	54.2	41	31.0	1	5	68	0.00	30.049 
17:05	54.2	54.2	54.2	39	29.8	1	5	248	0.00	30.049 
17:10	54.1	54.1	54.1	40	30.3	1	5	90	0.00	30.049 
17:15	53.9	53.9	53.9	41	30.7	0	2	90	0.00	30.042 
17:20	53.8	53.8	53.8	39	29.4	1	3	90	0.00	30.042 
17:25	53.8	53.8	53.8	40	30.1	1	4	248	0.00	30.042 
17:30	53.8	53.8	53.8	39	29.4	1	5	248	0.00	30.036 
17:35	53.9	53.9	53.9	39	29.5	1	4	248	0.00	30.036 
17:40	53.9	53.9	53.9	39	29.5	0	2	248	0.00	30.036 
17:45	53.9	53.9	53.9	39	29.5	1	5	248	0.00	30.031 
17:50	53.9	53.9	53.9	39	29.5	1	4	248	0.00	30.031 
17:55	53.9	53.9	53.9	38	28.9	1	5	248	0.00	30.031 
18:00	53.9	53.9	53.9	39	29.5	1	4	248	0.00	30.028 
18:05	53.8	53.8	53.8	39	29.4	1	3	248	0.00	30.028 
18:10	53.8	53.8	53.8	40	30.1	0	2	248	0.00	30.028 
18:15	53.8	53.8	53.8	42	31.3	0	2	248	0.00	30.026 
18:20	53.8	53.8	53.8	42	31.3	0	2	248	0.00	30.026 
18:25	53.6	53.6	53.6	40	29.9	1	4	248	0.00	30.026 
18:30	53.6	53.6	53.6	40	29.9	0	2	90	0.00	30.023 
18:35	53.6	53.6	53.6	41	30.5	0	1	90	0.00	30.023 
18:40	53.5	53.5	53.5	41	30.4	0	3	90	0.00	30.023 
18:45	53.5	53.5	53.5	40	29.8	1	3	90	0.00	30.024 
18:50	53.5	53.5	53.5	41	30.4	0	3	90	0.00	30.024 
18:55	53.3	53.3	53.3	40	29.6	1	4	90	0.00	30.024 
19:00	53.2	53.2	53.2	41	30.1	0	1	90	0.00	30.022 
19:05	53.1	53.1	53.1	41	30.0	0	2	90	0.00	30.022 
19:10	53.1	53.1	53.1	41	30.0	0	2	112	0.00	30.022 
19:15	52.9	52.9	52.9	42	30.4	0	1	112	0.00	30.015 
19:20	52.8	52.8	52.8	42	30.3	0	2	112	0.00	30.015 
19:25	52.8	52.8	52.8	42	30.3	0	1	112	0.00	30.015 
19:30	52.5	52.5	52.5	42	30.1	0	2	112	0.00	30.009 
19:35	52.3	52.3	52.3	43	30.5	0	1	112	0.00	30.009 
19:40	52.0	52.0	52.0	43	30.2	0	1	112	0.00	30.009 
19:45	51.9	51.9	51.9	44	30.7	0	0	---	0.00	30.005 
19:50	51.6	51.6	51.6	44	30.4	0	1	112	0.00	30.005 
19:55	51.3	51.3	51.3	44	30.1	0	1	112	0.00	30.005 
20:00	51.0	51.0	51.0	45	30.4	0	0	---	0.00	29.998 
20:05	50.7	50.7	50.7	46	30.7	0	0	---	0.00	29.998 
20:10	50.4	50.4	50.4	47	30.9	0	0	---	0.00	29.998 
20:15	49.9	49.9	49.9	48	31.0	0	1	112	0.00	29.990 
20:20	49.5	49.5	49.5	48	30.6	0	0	---	0.00	29.990 
20:25	49.2	49.2	49.2	49	30.9	0	0	---	0.00	29.990 
20:30	48.8	48.8	48.8	51	31.5	0	0	---	0.00	29.984 
20:35	48.3	48.3	48.3	52	31.5	0	0	---	0.00	29.984 
20:40	47.9	47.9	47.9	52	31.1	0	0	---	0.00	29.984 
20:45	47.4	47.4	47.4	52	30.7	0	0	---	0.00	29.980 
20:50	47.1	47.1	47.1	53	30.9	0	0	---	0.00	29.980 
20:55	46.8	46.8	46.8	54	31.0	0	0	---	0.00	29.980 
21:00	46.4	46.4	46.4	55	31.1	0	0	---	0.00	29.977 
21:05	46.1	46.1	46.1	55	30.8	0	0	---	0.00	29.977 
21:10	45.8	45.8	45.8	55	30.6	0	0	---	0.00	29.977 
21:15	45.5	45.5	45.5	57	31.2	0	0	---	0.00	29.969 
21:20	45.4	45.4	45.4	58	31.5	0	0	---	0.00	29.969 
21:25	45.1	45.1	45.1	58	31.2	0	0	---	0.00	29.969 
21:30	44.9	44.9	44.9	58	31.0	0	0	---	0.00	29.958 
21:35	44.6	44.6	44.6	59	31.2	0	0	---	0.00	29.958 
21:40	44.5	44.5	44.5	60	31.5	0	0	---	0.00	29.958 
21:45	44.3	44.3	44.3	60	31.3	0	0	---	0.00	29.957 
21:50	44.1	44.1	44.1	60	31.1	0	0	---	0.00	29.957 
21:55	43.8	43.8	43.8	61	31.2	0	0	---	0.00	29.957 
22:00	43.5	43.5	43.5	61	31.0	0	0	---	0.00	29.955 
22:05	43.3	43.3	43.3	62	31.2	0	0	---	0.00	29.955 
22:10	43.2	43.2	43.2	63	31.5	0	0	---	0.00	29.955 
22:15	42.9	42.9	42.9	63	31.2	0	0	---	0.00	29.950 
22:20	42.8	42.8	42.8	63	31.1	0	0	---	0.00	29.950 
22:25	42.6	42.6	42.6	64	31.3	0	0	---	0.00	29.950 
22:30	42.3	42.3	42.3	65	31.4	0	0	---	0.00	29.946 
22:35	42.2	42.2	42.2	65	31.3	0	0	---	0.00	29.946 
22:40	42.1	42.1	42.1	66	31.6	0	0	---	0.00	29.946 
22:45	41.9	41.9	41.9	66	31.4	0	0	---	0.00	29.942 
22:50	41.6	41.6	41.6	67	31.5	0	0	---	0.00	29.942 
22:55	41.5	41.5	41.5	69	32.1	0	0	---	0.00	29.942 
23:00	41.6	41.6	41.6	69	32.2	0	0	---	0.00	29.939 
23:05	41.6	41.6	41.6	69	32.2	0	0	---	0.00	29.939 
23:10	41.5	41.5	41.5	69	32.1	0	0	---	0.00	29.939 
23:15	41.6	41.6	41.6	69	32.2	0	0	---	0.00	29.938 
23:20	41.8	41.8	41.8	69	32.4	0	0	---	0.00	29.938 
23:25	41.8	41.8	41.8	69	32.4	0	0	---	0.00	29.938 
23:30	41.6	41.6	41.6	69	32.2	0	0	---	0.00	29.936 
23:35	41.5	41.5	41.5	70	32.5	0	0	---	0.00	29.936 
23:40	41.2	41.2	41.2	70	32.2	0	0	---	0.00	29.936 
23:45	41.1	41.1	41.1	70	32.1	0	0	---	0.00	29.931 
23:50	40.9	40.9	40.9	70	31.9	0	0	---	0.00	29.931 
23:55	40.6	40.6	40.6	70	31.6	0	0	---	0.00	29.931 

CoCoRaHS
IN-AL-39
A2 Web Hosting
Creative Commons License
GoDaddy
search engine by freefind advanced

loaded 2018-11-19 10:52:14 • last modified 2010-11-18 10:43:29
Privacy PolicyDisclaimer
• wx.awcolley.com is powered by PmWiki v.2002016 •
• all content (unless otherwise noted) © 2018 A W Colley